createdAt,value
2018-05-11T00:01:39.721Z,4.60
2018-05-11T00:04:08.903Z,5.60
2018-05-11T00:06:39.799Z,5.10
2018-05-11T00:09:11.642Z,5.10
2018-05-11T00:11:44.179Z,4.90
2018-05-11T00:14:16.277Z,5.27
2018-05-11T00:16:48.161Z,5.30
2018-05-11T00:19:19.850Z,5.87
2018-05-11T00:21:50.160Z,5.20
2018-05-11T00:24:20.985Z,6.43
2018-05-11T00:26:53.069Z,5.97
2018-05-11T00:29:24.810Z,4.90
2018-05-11T00:31:56.884Z,5.90
2018-05-11T00:34:28.669Z,5.97
2018-05-11T00:36:58.591Z,5.43
2018-05-11T00:39:28.961Z,5.00
2018-05-11T00:42:00.471Z,5.70
2018-05-11T00:44:29.625Z,5.05
2018-05-11T00:47:00.336Z,5.43
2018-05-11T00:49:30.270Z,5.53
2018-05-11T00:52:00.198Z,5.07
2018-05-11T00:54:29.350Z,5.93
2018-05-11T00:56:59.509Z,5.17
2018-05-11T00:59:28.681Z,4.97
2018-05-11T01:01:57.819Z,5.50
2018-05-11T01:04:27.652Z,4.60
2018-05-11T01:06:56.848Z,6.33
2018-05-11T01:09:26.022Z,5.57
2018-05-11T01:11:55.194Z,6.47
2018-05-11T01:14:25.109Z,5.60
2018-05-11T01:16:55.125Z,5.90
2018-05-11T01:19:24.259Z,5.00
2018-05-11T01:21:53.443Z,5.63
2018-05-11T01:24:22.613Z,4.60
2018-05-11T01:26:52.631Z,4.97
2018-05-11T01:29:22.545Z,4.22
2018-05-11T01:31:52.492Z,3.90
2018-05-11T01:34:22.550Z,4.00
2018-05-11T01:36:52.504Z,4.43
2018-05-11T01:39:22.450Z,3.37
2018-05-11T01:41:51.627Z,4.73
2018-05-11T01:44:22.465Z,3.63
2018-05-11T01:46:51.643Z,3.60
2018-05-11T01:49:21.594Z,3.50
2018-05-11T01:51:50.788Z,4.03
2018-05-11T01:54:19.985Z,3.70
2018-05-11T01:56:49.242Z,3.53
2018-05-11T01:59:18.390Z,3.20
2018-05-11T02:01:47.577Z,3.70
2018-05-11T02:04:17.334Z,3.55
2018-05-11T02:06:46.513Z,4.10
2018-05-11T02:09:15.740Z,4.37
2018-05-11T02:11:45.731Z,4.70
2018-05-11T02:14:14.913Z,3.90
2018-05-11T02:16:44.095Z,4.10
2018-05-11T02:19:13.263Z,4.50
2018-05-11T02:21:43.181Z,3.17
2018-05-11T02:24:13.112Z,3.60
2018-05-11T02:26:43.030Z,3.10
2018-05-11T02:29:12.953Z,4.20
2018-05-11T02:31:42.169Z,8.53
2018-05-11T02:34:11.332Z,24.67
2018-05-11T02:36:40.507Z,19.70
2018-05-11T02:39:09.660Z,9.10
2018-05-11T02:41:38.854Z,7.30
2018-05-11T02:44:08.027Z,6.00
2018-05-11T02:46:37.197Z,5.63
2018-05-11T02:49:07.112Z,5.90
2018-05-11T02:51:37.028Z,4.83
2018-05-11T02:54:06.220Z,4.43
2018-05-11T02:56:35.416Z,5.30
2018-05-11T02:59:05.968Z,4.00
2018-05-11T03:01:35.120Z,2.80
2018-05-11T03:04:05.705Z,3.50
2018-05-11T03:06:34.858Z,3.50
2018-05-11T03:09:04.012Z,3.90
2018-05-11T03:11:33.201Z,4.00
2018-05-11T03:14:02.412Z,3.80
2018-05-11T03:16:31.602Z,3.70
2018-05-11T03:19:01.829Z,4.13
2018-05-11T03:21:31.021Z,4.35
2018-05-11T03:24:00.162Z,4.00
2018-05-11T03:26:29.371Z,3.80
2018-05-11T03:28:58.514Z,4.27
2018-05-11T03:31:27.749Z,4.30
2018-05-11T03:33:56.904Z,3.40
2018-05-11T03:36:26.738Z,3.47
2018-05-11T03:38:55.891Z,2.63
2018-05-11T03:41:25.818Z,3.90
2018-05-11T03:43:55.767Z,4.30
2018-05-11T03:46:25.868Z,4.27
2018-05-11T03:48:55.289Z,4.30
2018-05-11T03:51:24.463Z,5.20
2018-05-11T03:53:53.744Z,5.30
2018-05-11T03:56:22.859Z,4.70
2018-05-11T03:58:57.017Z,5.30
2018-05-11T04:01:43.803Z,4.70
2018-05-11T04:04:31.528Z,4.23
2018-05-11T04:07:18.125Z,4.97
2018-05-11T04:09:47.276Z,4.13
2018-05-11T04:12:18.450Z,5.20
2018-05-11T04:14:48.369Z,5.50
2018-05-11T04:17:17.899Z,4.90
2018-05-11T04:19:47.049Z,4.50
2018-05-11T04:22:16.235Z,5.00
2018-05-11T04:24:45.417Z,4.60
2018-05-11T04:27:14.560Z,4.80
2018-05-11T04:29:44.482Z,4.33
2018-05-11T04:32:14.386Z,4.60
2018-05-11T04:34:44.302Z,4.03
2018-05-11T04:37:14.284Z,4.50
2018-05-11T04:39:43.418Z,4.73
2018-05-11T04:42:13.586Z,4.33
2018-05-11T04:44:42.755Z,4.67
2018-05-11T04:47:12.660Z,4.27
2018-05-11T04:49:41.839Z,4.50
2018-05-11T04:52:11.814Z,5.10
2018-05-11T04:54:40.962Z,4.30
2018-05-11T04:57:11.081Z,4.33
2018-05-11T04:59:40.996Z,4.67
2018-05-11T05:02:11.864Z,5.40
2018-05-11T05:04:41.119Z,4.50
2018-05-11T05:07:11.047Z,4.67
2018-05-11T05:09:40.252Z,5.00
2018-05-11T05:12:09.411Z,5.17
2018-05-11T05:14:38.614Z,6.70
2018-05-11T05:17:07.751Z,6.57
2018-05-11T05:19:36.952Z,6.50
2018-05-11T05:22:06.123Z,6.27
2018-05-11T05:24:36.132Z,5.70
2018-05-11T05:27:07.049Z,6.40
2018-05-11T05:29:36.213Z,5.87
2018-05-11T05:32:06.289Z,6.20
2018-05-11T05:34:36.248Z,5.78
2018-05-11T05:37:05.396Z,5.83
2018-05-11T05:39:35.515Z,5.87
2018-05-11T05:42:04.670Z,5.73
2018-05-11T05:44:33.858Z,5.87
2018-05-11T05:47:03.036Z,6.93
2018-05-11T05:49:32.223Z,5.90
2018-05-11T05:52:02.221Z,5.53
2018-05-11T05:54:31.348Z,6.07
2018-05-11T05:57:01.440Z,8.00
2018-05-11T05:59:30.597Z,6.75
2018-05-11T06:01:59.776Z,6.83
2018-05-11T06:04:30.581Z,5.78
2018-05-11T06:06:59.745Z,5.30
2018-05-11T06:09:28.910Z,5.57
2018-05-11T06:11:58.085Z,5.13
2018-05-11T06:14:27.294Z,5.10
2018-05-11T06:16:57.390Z,5.77
2018-05-11T06:19:27.377Z,6.15
2018-05-11T06:21:56.594Z,5.70
2018-05-11T06:24:25.731Z,4.53
2018-05-11T06:26:54.901Z,5.63
2018-05-11T06:29:25.764Z,5.47
2018-05-11T06:31:54.927Z,5.33
2018-05-11T06:34:24.862Z,6.40
2018-05-11T06:36:54.027Z,4.90
2018-05-11T06:39:24.177Z,5.50
2018-05-11T06:41:53.319Z,5.00
2018-05-11T06:44:22.533Z,4.65
2018-05-11T06:46:51.688Z,5.80
2018-05-11T06:49:20.911Z,6.70
2018-05-11T06:51:50.090Z,6.30
2018-05-11T06:54:20.199Z,5.07
2018-05-11T06:56:49.442Z,4.82
2018-05-11T06:59:20.457Z,5.33
2018-05-11T07:01:49.673Z,5.00
2018-05-11T07:04:19.647Z,5.23
2018-05-11T07:06:48.825Z,5.87
2018-05-11T07:09:19.210Z,5.33
2018-05-11T07:11:48.432Z,5.03
2018-05-11T07:14:19.424Z,5.27
2018-05-11T07:16:48.638Z,5.00
2018-05-11T07:19:18.819Z,5.37
2018-05-11T07:21:48.046Z,5.83
2018-05-11T07:24:19.382Z,5.90
2018-05-11T07:26:48.560Z,6.10
2018-05-11T07:29:18.610Z,4.90
2018-05-11T07:31:47.784Z,5.37
2018-05-11T07:34:19.924Z,5.03
2018-05-11T07:36:49.114Z,5.20
2018-05-11T07:39:18.663Z,5.20
2018-05-11T07:41:48.571Z,4.73
2018-05-11T07:44:19.566Z,4.73
2018-05-11T07:46:48.691Z,4.90
2018-05-11T07:49:19.526Z,6.07
2018-05-11T07:51:48.745Z,5.33
2018-05-11T07:54:19.564Z,5.57
2018-05-11T07:56:48.756Z,4.93
2018-05-11T07:59:19.609Z,6.97
2018-05-11T08:01:48.805Z,11.47
2018-05-11T08:04:20.577Z,6.03
2018-05-11T08:06:49.776Z,5.60
2018-05-11T08:09:18.933Z,6.03
2018-05-11T08:11:48.094Z,6.90
2018-05-11T08:14:17.313Z,7.60
2018-05-11T08:16:47.245Z,8.10
2018-05-11T08:19:16.484Z,6.83
2018-05-11T08:21:45.693Z,6.60
2018-05-11T08:24:15.792Z,8.40
2018-05-11T08:26:45.806Z,9.10
2018-05-11T08:29:14.948Z,8.43
2018-05-11T08:31:44.102Z,8.27
2018-05-11T08:34:13.630Z,8.33
2018-05-11T08:36:42.821Z,9.57
2018-05-11T08:39:12.254Z,9.47
2018-05-11T08:41:43.214Z,9.47
2018-05-11T08:44:12.436Z,10.50
2018-05-11T08:46:41.602Z,11.40
2018-05-11T08:49:10.783Z,11.10
2018-05-11T08:51:40.716Z,9.47
2018-05-11T08:54:09.922Z,10.60
2018-05-11T08:56:39.877Z,11.93
2018-05-11T08:59:09.072Z,13.23
2018-05-11T09:01:39.223Z,12.10
2018-05-11T09:04:09.140Z,12.90
2018-05-11T09:06:38.399Z,11.67
2018-05-11T09:09:07.553Z,13.27
2018-05-11T09:11:36.743Z,14.52
2018-05-11T09:14:06.670Z,14.43
2018-05-11T09:16:35.855Z,14.18
2018-05-11T09:19:05.800Z,13.90
2018-05-11T09:21:35.013Z,14.60
2018-05-11T09:24:04.214Z,15.67
2018-05-11T09:26:33.374Z,14.27
2018-05-11T09:29:02.563Z,17.33
2018-05-11T09:31:32.507Z,16.83
2018-05-11T09:34:01.696Z,16.90
2018-05-11T09:36:30.861Z,17.67
2018-05-11T09:39:00.026Z,18.93
2018-05-11T09:41:29.214Z,18.17
2018-05-11T09:43:58.422Z,18.80
2018-05-11T09:46:27.610Z,16.67
2018-05-11T09:48:56.789Z,18.00
2018-05-11T09:51:26.939Z,19.35
2018-05-11T09:53:56.104Z,20.77
2018-05-11T09:56:25.290Z,20.07
2018-05-11T09:58:54.470Z,21.43
2018-05-11T10:01:24.433Z,18.42
2018-05-11T10:03:53.587Z,18.10
2018-05-11T10:06:23.517Z,21.70
2018-05-11T10:08:53.962Z,22.53
2018-05-11T10:11:23.115Z,20.87
2018-05-11T10:13:53.070Z,20.80
2018-05-11T10:16:23.022Z,19.50
2018-05-11T10:18:52.208Z,20.10
2018-05-11T10:21:21.378Z,21.53
2018-05-11T10:23:50.548Z,22.10
2018-05-11T10:26:20.494Z,20.47
2018-05-11T10:28:50.021Z,18.30
2018-05-11T10:31:20.452Z,18.50
2018-05-11T10:33:49.666Z,18.80
2018-05-11T10:36:19.727Z,18.90
2018-05-11T10:38:48.983Z,21.17
2018-05-11T10:41:18.722Z,16.60
2018-05-11T10:43:47.922Z,18.00
2018-05-11T10:46:17.850Z,19.40
2018-05-11T10:48:47.066Z,19.80
2018-05-11T10:51:16.214Z,21.97
2018-05-11T10:53:45.414Z,19.20
2018-05-11T10:56:16.550Z,20.60
2018-05-11T10:58:45.708Z,17.80
2018-05-11T11:01:15.646Z,18.97
2018-05-11T11:03:45.758Z,16.20
2018-05-11T11:06:15.701Z,17.70
2018-05-11T11:08:44.853Z,18.00
2018-05-11T11:13:52.153Z,19.40
2018-05-11T11:16:22.859Z,17.33
2018-05-11T11:18:52.042Z,17.70
2018-05-11T11:21:21.224Z,18.83
2018-05-11T11:23:50.419Z,18.00
2018-05-11T11:26:20.046Z,20.83
2018-05-11T11:28:49.267Z,21.10
2018-05-11T11:31:18.465Z,17.07
2018-05-11T11:33:47.667Z,20.40
2018-05-11T11:36:16.880Z,16.97
2018-05-11T11:38:46.115Z,12.70
2018-05-11T11:41:15.292Z,14.93
2018-05-11T11:43:46.144Z,15.70
2018-05-11T11:46:16.085Z,12.07
2018-05-11T11:48:45.291Z,16.03
2018-05-11T11:51:14.482Z,12.30
2018-05-11T11:53:43.679Z,14.33
2018-05-11T11:56:13.841Z,15.87
2018-05-11T11:58:43.035Z,16.70
2018-05-11T12:01:12.214Z,11.80
2018-05-11T12:03:42.505Z,14.63
2018-05-11T12:06:11.682Z,12.63
2018-05-11T12:08:41.616Z,12.30
2018-05-11T12:11:10.793Z,13.07
2018-05-11T12:13:39.969Z,12.37
2018-05-11T12:16:09.155Z,13.25
2018-05-11T12:18:39.379Z,11.70
2018-05-11T12:21:08.548Z,13.00
2018-05-11T12:23:37.764Z,10.80
2018-05-11T12:26:07.054Z,10.47
2018-05-11T12:28:37.140Z,10.60
2018-05-11T12:31:06.294Z,13.50
2018-05-11T12:33:35.498Z,12.90
2018-05-11T12:36:04.657Z,10.73
2018-05-11T12:38:33.821Z,11.48
2018-05-11T12:41:03.090Z,11.30
2018-05-11T12:43:32.985Z,10.73
2018-05-11T12:46:02.178Z,9.90
2018-05-11T12:48:31.371Z,12.20
2018-05-11T12:51:01.295Z,10.60
2018-05-11T12:53:30.458Z,8.85
2018-05-11T12:55:59.628Z,9.27
2018-05-11T12:58:29.552Z,9.23
2018-05-11T13:00:59.466Z,9.73
2018-05-11T13:03:28.654Z,12.50
2018-05-11T13:05:58.653Z,9.77
2018-05-11T13:08:28.769Z,11.93
2018-05-11T13:10:58.188Z,9.30
2018-05-11T13:13:27.359Z,11.67
2018-05-11T13:15:56.526Z,9.87
2018-05-11T13:18:25.705Z,9.40
2018-05-11T13:20:55.517Z,11.53
2018-05-11T13:23:24.692Z,12.10
2018-05-11T13:25:55.553Z,10.97
2018-05-11T13:28:24.758Z,11.20
2018-05-11T13:30:53.931Z,10.30
2018-05-11T13:33:24.804Z,9.63
2018-05-11T13:35:54.009Z,9.20
2018-05-11T13:38:26.294Z,10.33
2018-05-11T13:40:55.653Z,9.20
2018-05-11T13:43:25.563Z,10.65
2018-05-11T13:45:55.299Z,11.37
2018-05-11T13:48:24.841Z,13.10
2018-05-11T13:50:54.185Z,9.07
2018-05-11T13:53:23.425Z,10.37
2018-05-11T13:55:52.635Z,10.23
2018-05-11T13:58:21.842Z,10.60
2018-05-11T14:00:51.018Z,10.27
2018-05-11T14:03:20.668Z,12.23
2018-05-11T14:05:51.533Z,9.73
2018-05-11T14:08:20.707Z,10.40
2018-05-11T14:10:50.970Z,9.33
2018-05-11T14:13:21.536Z,7.83
2018-05-11T14:15:50.711Z,10.80
2018-05-11T14:18:20.685Z,9.20
2018-05-11T14:20:50.803Z,10.80
2018-05-11T14:23:20.750Z,9.87
2018-05-11T14:25:49.971Z,11.20
2018-05-11T14:28:21.166Z,9.27
2018-05-11T14:30:50.331Z,9.20
2018-05-11T14:33:20.743Z,12.00
2018-05-11T14:35:49.948Z,8.90
2018-05-11T14:38:19.081Z,9.27
2018-05-11T14:40:48.259Z,8.70
2018-05-11T14:43:18.193Z,8.23
2018-05-11T14:45:49.063Z,10.93
2018-05-11T14:48:18.255Z,10.27
2018-05-11T14:50:48.213Z,8.23
2018-05-11T14:53:17.488Z,8.33
2018-05-11T14:55:47.391Z,8.20
2018-05-11T14:58:18.851Z,8.73
2018-05-11T15:00:49.786Z,8.53
2018-05-11T15:03:18.951Z,8.90
2018-05-11T15:05:48.157Z,10.00
2018-05-11T15:08:17.326Z,7.60
2018-05-11T15:10:46.528Z,7.90
2018-05-11T15:13:15.701Z,6.97
2018-05-11T15:15:45.898Z,8.00
2018-05-11T15:18:15.827Z,8.83
2018-05-11T15:20:45.030Z,7.67
2018-05-11T15:23:14.948Z,8.30
2018-05-11T15:25:44.112Z,7.90
2018-05-11T15:28:15.044Z,7.80
2018-05-11T15:30:44.947Z,8.10
2018-05-11T15:33:14.120Z,6.80
2018-05-11T15:35:44.070Z,8.07
2018-05-11T15:38:13.223Z,7.90
2018-05-11T15:40:44.139Z,8.37
2018-05-11T15:43:13.373Z,8.27
2018-05-11T15:45:42.552Z,8.60
2018-05-11T15:48:13.882Z,8.80
2018-05-11T15:50:43.068Z,7.60
2018-05-11T15:53:12.249Z,7.60
2018-05-11T15:55:41.404Z,6.53
2018-05-11T15:58:10.677Z,7.03
2018-05-11T16:00:39.858Z,8.87
2018-05-11T16:03:09.355Z,7.40
2018-05-11T16:05:38.575Z,9.00
2018-05-11T16:08:10.207Z,8.50
2018-05-11T16:10:39.664Z,6.57
2018-05-11T16:13:09.671Z,7.30
2018-05-11T16:15:39.623Z,7.78
2018-05-11T16:18:08.782Z,8.60
2018-05-11T16:20:38.743Z,7.47
2018-05-11T16:23:08.861Z,8.40
2018-05-11T16:25:38.012Z,8.13
2018-05-11T16:28:08.180Z,8.10
2018-05-11T16:30:37.800Z,7.53
2018-05-11T16:33:06.975Z,8.60
2018-05-11T16:35:36.181Z,7.95
2018-05-11T16:38:07.275Z,6.70
2018-05-11T16:40:36.469Z,7.90
2018-05-11T16:43:06.498Z,7.57
2018-05-11T16:45:36.454Z,8.90
2018-05-11T16:48:06.573Z,8.67
2018-05-11T16:50:35.764Z,8.03
2018-05-11T16:53:05.838Z,8.57
2018-05-11T16:55:35.018Z,9.25
2018-05-11T16:58:04.174Z,8.50
2018-05-11T17:00:33.355Z,8.27
2018-05-11T17:03:02.524Z,8.60
2018-05-11T17:05:31.722Z,8.35
2018-05-11T17:08:00.979Z,8.35
2018-05-11T17:10:30.134Z,7.90
2018-05-11T17:13:00.111Z,7.75
2018-05-11T17:15:29.274Z,8.32
2018-05-11T17:17:58.450Z,6.80
2018-05-11T17:20:27.627Z,7.35
2018-05-11T17:22:56.894Z,8.00
2018-05-11T17:25:26.524Z,7.93
2018-05-11T17:27:55.682Z,7.22
2018-05-11T17:30:24.851Z,7.90
2018-05-11T17:32:55.709Z,7.75
2018-05-11T17:35:24.895Z,7.70
2018-05-11T17:37:54.096Z,7.35
2018-05-11T17:40:23.262Z,7.45
2018-05-11T17:42:52.439Z,6.73
2018-05-11T17:45:21.652Z,7.82
2018-05-11T17:47:50.845Z,7.23
2018-05-11T17:50:20.052Z,7.07
2018-05-11T17:52:49.255Z,7.07
2018-05-11T17:55:18.453Z,8.13
2018-05-11T17:57:47.601Z,8.20
2018-05-11T18:00:16.791Z,7.00
2018-05-11T18:02:47.418Z,8.53
2018-05-11T18:05:16.596Z,6.90
2018-05-11T18:07:46.177Z,7.67
2018-05-11T18:10:15.388Z,8.03
2018-05-11T18:12:44.598Z,8.03
2018-05-11T18:15:14.543Z,8.33
2018-05-11T18:17:43.739Z,8.20
2018-05-11T18:20:15.715Z,7.60
2018-05-11T18:22:45.669Z,7.73
2018-05-11T18:25:14.841Z,8.37
2018-05-11T18:27:44.042Z,8.83
2018-05-11T18:30:14.153Z,8.17
2018-05-11T18:32:43.332Z,6.70
2018-05-11T18:35:13.482Z,8.23
2018-05-11T18:37:43.453Z,7.43
2018-05-11T18:40:12.733Z,7.50
2018-05-11T18:42:41.895Z,8.77
2018-05-11T18:45:11.065Z,8.30
2018-05-11T18:47:40.314Z,8.70
2018-05-11T18:50:09.761Z,8.57
2018-05-11T18:52:39.760Z,9.32
2018-05-11T18:55:08.949Z,10.03
2018-05-11T18:57:38.963Z,8.80
2018-05-11T19:00:08.908Z,9.83
2018-05-11T19:02:38.860Z,9.55
2018-05-11T19:05:08.022Z,10.80
2018-05-11T19:07:37.364Z,9.65
2018-05-11T19:10:06.529Z,10.33
2018-05-11T19:12:35.721Z,10.02
2018-05-11T19:15:04.926Z,10.60
2018-05-11T19:17:34.127Z,11.93
2018-05-11T19:20:03.304Z,10.80
2018-05-11T19:22:32.527Z,11.30
2018-05-11T19:25:02.615Z,9.87
2018-05-11T19:27:32.224Z,12.00
2018-05-11T19:30:01.798Z,12.70
2018-05-11T19:32:31.254Z,12.02
2018-05-11T19:35:02.345Z,12.00
2018-05-11T19:37:32.318Z,11.90
2018-05-11T19:40:02.319Z,10.80
2018-05-11T19:42:31.511Z,12.23
2018-05-11T19:45:00.713Z,12.43
2018-05-11T19:47:29.912Z,12.75
2018-05-11T19:49:59.112Z,12.73
2018-05-11T19:52:28.293Z,12.40
2018-05-11T19:54:58.245Z,13.07
2018-05-11T19:57:28.540Z,13.00
2018-05-11T19:59:58.299Z,13.83
2018-05-11T20:02:28.973Z,13.57
2018-05-11T20:04:58.154Z,12.80
2018-05-11T20:07:28.142Z,13.15
2018-05-11T20:09:58.319Z,13.03
2018-05-11T20:12:28.248Z,14.53
2018-05-11T20:14:57.408Z,14.90
2018-05-11T20:17:27.346Z,14.52
2018-05-11T20:19:57.455Z,13.67
2018-05-11T20:22:27.102Z,12.77
2018-05-11T20:24:56.263Z,12.73
2018-05-11T20:27:25.665Z,13.03
2018-05-11T20:29:55.601Z,11.87
2018-05-11T20:32:24.886Z,13.73
2018-05-11T20:34:54.218Z,12.17
2018-05-11T20:37:23.741Z,11.70
2018-05-11T20:39:52.981Z,12.37
2018-05-11T20:42:23.859Z,11.07
2018-05-11T20:44:53.053Z,12.93
2018-05-11T20:47:22.216Z,13.27
2018-05-11T20:49:52.158Z,11.90
2018-05-11T20:52:22.985Z,12.10
2018-05-11T20:54:52.159Z,11.83
2018-05-11T20:57:22.104Z,12.10
2018-05-11T20:59:51.334Z,10.90
2018-05-11T21:02:20.565Z,11.70
2018-05-11T21:04:50.564Z,11.50
2018-05-11T21:07:20.758Z,11.93
2018-05-11T21:09:50.699Z,11.93
2018-05-11T21:12:19.864Z,12.00
2018-05-11T21:14:49.857Z,12.03
2018-05-11T21:17:18.961Z,12.20
2018-05-11T21:19:48.923Z,13.17
2018-05-11T21:22:18.112Z,13.67
2018-05-11T21:24:47.301Z,13.47
2018-05-11T21:27:17.565Z,12.60
2018-05-11T21:29:46.710Z,14.07
2018-05-11T21:32:15.885Z,12.60
2018-05-11T21:34:45.147Z,13.60
2018-05-11T21:37:14.407Z,13.23
2018-05-11T21:39:43.600Z,13.40
2018-05-11T21:42:12.830Z,15.60
2018-05-11T21:44:41.998Z,15.30
2018-05-11T21:47:12.091Z,14.73
2018-05-11T21:49:41.360Z,14.97
2018-05-11T21:52:11.302Z,15.67
2018-05-11T21:54:40.478Z,16.70
2018-05-11T21:57:11.345Z,14.97
2018-05-11T21:59:40.560Z,16.00
2018-05-11T22:02:10.692Z,16.17
2018-05-11T22:04:39.843Z,15.32
2018-05-11T22:07:09.031Z,17.20
2018-05-11T22:09:38.988Z,16.83
2018-05-11T22:12:08.147Z,17.30
2018-05-11T22:14:37.514Z,15.40
2018-05-11T22:17:06.668Z,15.50
2018-05-11T22:19:35.865Z,15.80
2018-05-11T22:22:05.045Z,15.50
2018-05-11T22:24:34.482Z,15.23
2018-05-11T22:27:07.962Z,15.77
2018-05-11T22:29:37.129Z,15.48
2018-05-11T22:32:07.103Z,15.30
2018-05-11T22:34:36.670Z,15.38
2018-05-11T22:37:06.605Z,15.83
2018-05-11T22:39:36.475Z,16.30
2018-05-11T22:42:05.674Z,16.63
2018-05-11T22:44:34.864Z,15.95
2018-05-11T22:47:05.806Z,16.73
2018-05-11T22:49:35.759Z,16.45
2018-05-11T22:52:04.949Z,18.40
2018-05-11T22:54:34.133Z,16.87
2018-05-11T22:57:03.305Z,17.30
2018-05-11T22:59:33.246Z,16.30
2018-05-11T23:02:02.383Z,17.50
2018-05-11T23:04:31.556Z,15.88
2018-05-11T23:07:00.743Z,18.33
2018-05-11T23:09:29.924Z,17.10
2018-05-11T23:11:59.072Z,17.37
2018-05-11T23:14:28.234Z,19.52
2018-05-11T23:16:57.380Z,18.30
2018-05-11T23:19:26.553Z,17.77
2018-05-11T23:21:56.477Z,19.83
2018-05-11T23:24:26.431Z,17.13
2018-05-11T23:26:56.372Z,17.07
2018-05-11T23:29:25.616Z,17.40
2018-05-11T23:31:54.796Z,18.23
2018-05-11T23:34:24.001Z,17.60
2018-05-11T23:36:53.169Z,18.20
2018-05-11T23:39:22.527Z,19.27
2018-05-11T23:41:52.482Z,15.70
2018-05-11T23:44:22.550Z,14.87
2018-05-11T23:46:51.705Z,16.20
2018-05-11T23:49:20.871Z,16.17
2018-05-11T23:51:50.037Z,15.23
2018-05-11T23:54:19.217Z,16.00
2018-05-11T23:56:49.195Z,15.03
2018-05-11T23:59:18.962Z,15.00
